Date,TemperatureHighF,TemperatureAvgF,TemperatureLowF,DewpointHighF,DewpointAvgF,DewpointLowF,HumidityHigh,HumidityAvg,HumidityLow,PressureMaxIn,PressureMinIn,WindSpeedMaxMPH,WindSpeedAvgMPH,GustSpeedMaxMPH,PrecipitationSumIn
2013-1-1,47,44,41,47,43,35,98,95,74,30.15,30.00,1,0,3,0.00
2013-1-2,43,39,37,42,36,34,95,89,82,30.23,30.05,1,0,2,0.00
2013-1-3,45,36,29,34,30,26,93,77,49,30.43,30.20,2,0,3,0.00
2013-1-4,47,34,25,28,25,22,92,71,38,30.50,30.40,3,0,4,0.00
2013-1-5,47,33,24,38,13,-100,94,63,44,30.46,30.29,3,-118,4,0.01
2013-1-6,49,35,38,39,15,-100,97,69,62,30.35,30.18,3,-156,4,0.00
2013-1-7,50,36,26,33,29,24,93,76,50,30.45,30.33,4,1,10,0.00
2013-1-8,56,42,30,45,36,27,93,80,60,30.45,30.32,2,0,4,0.00
2013-1-9,57,52,50,55,50,45,98,92,83,30.46,30.36,3,0,5,0.11
2013-1-10,62,54,50,57,52,50,98,96,86,30.45,30.14,2,0,4,0.05
2013-1-11,66,63,61,63,61,58,99,95,87,30.15,30.07,3,1,7,0.64
2013-1-12,69,65,61,66,63,60,99,94,84,30.12,29.99,2,0,4,0.08
2013-1-13,66,62,52,63,60,50,98,93,84,30.06,29.94,3,1,3,1.22
2013-1-14,51,42,37,49,41,36,100,95,89,30.28,30.06,1,0,2,1.48
2013-1-15,43,41,39,42,41,38,100,98,96,30.20,30.01,2,0,4,1.48
2013-1-16,47,44,41,47,43,40,99,97,94,30.09,29.95,1,0,2,0.14
2013-1-17,43,41,36,42,37,26,98,86,65,30.37,29.80,7,2,15,0.12
2013-1-18,46,32,28,31,28,27,95,86,51,30.57,30.38,1,0,1,0.00
2013-1-19,55,38,26,34,30,24,96,75,42,30.48,30.25,3,0,4,0.00
2013-1-20,59,44,30,40,34,28,94,71,43,30.25,30.15,2,0,4,0.00
2013-1-21,48,37,28,34,24,17,94,64,33,30.29,30.14,3,0,5,0.00
2013-1-22,39,30,24,18,13,9,65,48,30,30.43,30.27,3,0,3,0.00
2013-1-23,50,38,31,35,23,14,79,55,43,30.43,30.19,3,1,5,0.00
2013-1-24,49,40,27,42,26,10,80,59,33,30.42,30.20,4,1,6,0.00
2013-1-25,34,32,29,32,25,11,100,77,42,30.41,30.17,3,1,6,0.30
2013-1-26,48,37,29,37,33,28,98,87,64,30.37,30.23,2,0,3,0.01
2013-1-27,49,40,30,39,34,29,94,79,65,30.47,30.38,2,0,3,0.00
2013-1-28,58,50,44,51,42,34,90,75,63,30.41,30.25,4,1,5,0.00
2013-1-29,60,52,43,59,50,42,98,94,89,30.27,29.88,1,0,3,0.01
2013-1-30,66,55,38,64,53,34,99,92,78,29.87,29.55,4,2,8,1.73
2013-1-31,46,39,33,32,27,24,81,63,44,30.15,29.83,3,1,8,0.03
2013-2-1,45,31,23,34,18,9,78,58,33,30.47,30.10,2,1,4,0.00
2013-2-2,37,28,20,34,25,17,94,87,72,30.43,30.16,2,0,2,0.06
2013-2-3,52,39,29,37,30,26,96,74,43,30.19,30.06,3,1,6,0.02
2013-2-4,48,36,25,34,29,23,93,76,53,30.19,30.02,2,0,3,0.00
2013-2-5,62,48,40,45,41,33,95,78,51,30.07,29.96,3,0,6,0.02
2013-2-6,62,47,34,43,38,32,97,74,42,30.23,30.07,2,0,4,0.00
2013-2-7,52,46,42,45,40,36,93,79,59,30.16,29.97,2,0,2,0.00
2013-2-8,54,46,38,48,41,31,97,84,61,30.29,29.94,3,1,6,0.05
2013-2-9,55,42,32,35,30,28,83,65,39,30.38,30.25,4,1,5,0.00
2013-2-10,54,48,42,51,39,30,96,73,41,30.27,30.03,4,1,6,0.84
2013-2-11,56,52,43,54,46,34,98,82,48,30.17,30.03,3,0,4,0.05
2013-2-12,50,44,35,41,36,32,95,74,50,30.19,29.87,5,1,5,0.10
2013-2-13,47,43,40,45,40,34,98,89,76,30.04,29.73,2,0,8,0.13
2013-2-14,57,44,31,39,35,29,93,72,47,30.12,30.02,3,1,5,0.00
2013-2-15,59,43,33,43,36,29,95,75,51,30.13,30.04,3,1,7,0.00
2013-2-16,39,34,27,30,21,13,79,62,40,30.23,30.07,3,1,7,0.00
2013-2-17,46,30,18,22,11,-100,87,55,31,30.34,30.22,3,-55,5,0.00
2013-2-18,59,41,24,34,21,-100,90,54,39,30.36,30.04,5,-50,8,0.00
2013-2-19,54,39,37,44,15,-100,97,54,27,30.24,29.98,4,-117,7,0.55
2013-2-20,42,32,25,23,9,-100,86,50,28,30.30,30.21,3,-84,4,0.00
2013-2-21,51,40,30,39,26,17,96,60,33,30.26,29.98,4,1,6,0.82
2013-2-22,47,45,40,44,43,39,97,93,88,30.13,30.04,4,1,5,0.25
2013-2-23,55,48,42,50,45,39,98,91,80,30.07,29.86,2,0,3,0.22
2013-2-24,57,43,31,38,33,29,95,71,40,30.10,29.96,3,1,5,0.00
2013-2-25,53,46,39,43,30,-100,79,56,47,30.06,29.80,3,-20,4,0.00
2013-2-26,49,44,40,44,41,36,97,88,70,29.79,29.55,5,2,11,1.04
2013-2-27,54,44,39,38,35,32,88,72,51,29.92,29.77,4,2,7,0.01
2013-2-28,41,38,36,31,29,26,76,69,63,30.07,29.88,2,0,3,0.00
2013-3-1,40,37,34,32,30,28,90,77,68,30.07,30.02,2,0,4,0.01
2013-3-2,38,35,31,31,29,24,90,79,70,30.13,30.01,1,0,3,0.00
2013-3-3,40,32,26,24,22,18,82,67,45,30.17,30.11,2,0,4,0.00
2013-3-4,52,38,25,34,26,20,86,63,39,30.25,30.02,2,0,3,0.00
2013-3-5,55,46,37,54,42,28,98,84,58,30.05,29.64,5,1,6,0.94
2013-3-6,41,35,32,31,27,22,86,72,64,30.30,29.95,3,1,6,0.01
2013-3-7,47,38,32,34,29,26,81,71,58,30.40,30.29,4,1,8,0.00
2013-3-8,56,41,30,31,28,22,85,63,27,30.42,30.30,5,1,9,0.00
2013-3-9,60,49,38,38,33,29,72,56,38,30.34,30.18,2,1,4,0.00
2013-3-10,69,60,47,43,37,35,71,45,29,30.17,29.99,5,2,7,0.00
2013-3-11,61,55,42,54,49,38,97,82,50,30.00,29.73,4,1,7,1.27
2013-3-12,57,45,38,38,34,31,90,66,39,30.15,29.92,3,1,6,0.00
2013-3-13,48,41,32,33,27,20,83,59,41,30.39,30.13,3,1,5,0.00
2013-3-14,51,37,26,37,22,18,91,59,29,30.45,30.30,3,1,5,0.03
2013-3-15,74,45,31,48,19,-100,95,56,39,30.32,29.96,4,-152,7,0.00
2013-3-16,76,66,56,52,48,44,68,53,37,29.96,29.81,4,2,11,0.00
2013-3-17,70,62,53,55,50,47,82,66,47,29.96,29.85,4,1,7,0.00
2013-3-18,60,56,51,57,54,48,98,91,79,29.90,29.76,4,1,7,0.94
2013-3-19,61,50,35,52,34,20,98,60,27,30.16,29.89,4,1,5,0.01
2013-3-20,57,46,38,33,22,15,74,41,24,30.17,29.95,4,1,7,0.00
2013-3-21,45,35,25,30,17,11,73,49,31,30.09,29.98,3,1,6,0.00
2013-3-22,45,38,31,33,23,17,70,55,46,30.11,30.03,1,0,3,0.00
2013-3-23,52,44,38,45,40,34,95,84,71,30.06,29.79,3,0,4,0.14
2013-3-24,56,49,41,53,46,32,98,89,63,29.88,29.43,6,2,9,1.23
2013-3-25,41,36,33,31,26,24,79,69,61,30.12,29.69,4,2,7,0.00
2013-3-26,39,35,31,30,28,26,88,75,63,30.38,30.12,1,0,3,0.01
2013-3-27,52,39,26,30,27,23,90,65,37,30.42,30.31,3,1,6,0.00
2013-3-28,60,44,28,34,30,26,90,63,35,30.41,30.28,3,1,6,0.00
2013-3-29,54,44,34,41,35,31,91,72,45,30.38,30.25,4,1,4,0.00
2013-3-30,63,50,41,54,46,39,97,85,58,30.27,30.01,2,0,4,0.34
2013-3-31,63,57,54,59,55,53,98,94,77,30.01,29.86,3,0,4,0.66
2013-4-1,68,55,40,55,45,39,98,73,42,30.09,29.90,4,1,7,0.00
2013-4-2,56,48,39,40,29,23,74,50,29,30.26,30.09,3,1,5,0.00
2013-4-3,56,50,42,32,26,21,54,40,30,30.26,30.17,6,2,8,0.00
2013-4-4,51,43,39,43,40,30,97,92,44,30.18,30.00,3,0,4,1.09
2013-4-5,66,52,41,47,41,38,98,71,36,30.12,30.02,5,1,5,0.04
2013-4-6,71,56,38,46,41,35,93,60,35,30.21,30.05,5,1,8,0.00
2013-4-7,75,62,48,51,46,42,83,59,36,30.17,30.02,4,1,8,0.00
2013-4-8,76,64,51,58,53,48,89,69,50,30.09,30.00,5,1,8,0.00
2013-4-9,81,66,52,62,56,49,94,71,49,30.19,30.01,3,1,5,0.00
2013-4-10,83,70,54,63,58,51,93,68,46,30.09,29.86,5,1,7,0.00
2013-4-11,78,68,59,66,60,56,98,79,62,29.88,29.55,5,1,6,1.05
2013-4-12,66,58,49,61,47,39,97,70,38,29.97,29.62,3,1,8,0.21
2013-4-13,75,58,41,45,41,34,95,59,24,30.09,29.97,3,0,4,0.00
2013-4-14,63,53,45,54,47,41,96,80,52,30.05,29.94,4,0,4,0.07
2013-4-15,76,64,54,61,57,53,98,81,58,30.10,29.94,2,0,5,0.00
2013-4-16,78,68,60,67,62,57,92,83,68,30.23,30.10,3,0,4,0.02
2013-4-17,85,68,62,69,64,60,97,86,58,30.20,30.06,6,1,10,0.46
2013-4-18,80,69,57,64,60,57,99,76,49,30.05,29.79,4,1,7,0.00
2013-4-19,73,57,44,65,50,35,96,79,62,30.12,29.66,4,1,8,1.19
2013-4-20,62,49,33,39,34,30,95,61,31,30.30,30.13,3,0,5,0.00
2013-4-21,67,55,44,46,39,34,79,57,36,30.39,30.24,3,0,4,0.00
2013-4-22,70,56,41,49,44,39,95,68,38,30.35,30.14,3,0,5,0.00
2013-4-23,73,60,47,54,47,39,86,64,45,30.23,30.02,3,0,5,0.00
2013-4-24,69,59,48,62,54,42,97,83,67,30.25,30.01,4,0,5,0.08
2013-4-25,66,53,41,42,38,32,86,61,28,30.37,30.25,2,0,3,0.00
2013-4-26,71,56,40,51,41,36,95,63,34,30.41,30.27,3,0,4,0.35
2013-4-27,56,52,50,54,52,49,98,97,95,30.39,30.12,2,0,2,1.18
2013-4-28,59,57,56,59,56,54,99,98,93,30.13,29.93,1,0,2,1.81
2013-4-29,72,62,55,59,57,53,98,85,59,30.05,29.93,1,0,3,0.00
2013-4-30,76,62,48,61,54,47,99,78,45,30.08,29.96,2,0,2,0.00
2013-5-1,74,65,56,62,58,54,97,80,62,30.18,30.07,1,0,2,0.00
2013-5-2,72,64,53,61,57,51,96,79,67,30.18,30.09,2,0,5,0.00
2013-5-3,70,61,56,60,56,55,96,84,65,30.12,29.95,2,0,6,0.02
2013-5-4,63,54,51,55,52,50,98,95,73,29.96,29.88,2,0,3,3.21
2013-5-5,61,51,46,54,49,46,100,93,67,29.90,29.76,1,0,2,1.29
2013-5-6,53,50,47,52,49,46,98,97,93,29.93,29.79,1,0,1,0.31
2013-5-7,69,57,45,56,52,45,99,84,58,30.00,29.91,1,0,5,0.01
2013-5-8,72,62,51,62,57,50,98,85,65,30.07,29.96,1,0,1,0.00
2013-5-9,80,65,53,64,58,52,98,80,50,30.11,30.01,1,0,3,0.00
2013-5-10,72,65,56,62,59,55,98,82,67,30.07,29.93,2,0,4,0.00
2013-5-11,74,66,58,67,61,52,95,84,69,30.00,29.88,1,0,3,0.23
2013-5-12,66,57,49,52,42,35,94,59,34,30.17,30.00,1,0,3,0.00
2013-5-13,69,54,39,45,40,34,93,62,29,30.28,30.16,1,0,3,0.00
2013-5-14,79,62,42,59,50,40,95,68,46,30.26,30.07,2,0,4,0.00
2013-5-15,85,70,55,64,58,53,96,69,42,30.16,29.99,1,0,3,0.00
2013-5-16,83,70,58,65,61,56,93,75,52,30.07,29.95,1,0,2,0.00
2013-5-17,75,67,61,68,63,58,97,85,70,30.08,29.99,1,0,2,0.19
2013-5-18,75,69,64,71,67,63,99,95,85,30.05,29.98,1,0,3,0.72
2013-5-19,70,66,59,69,65,59,99,98,94,30.12,29.92,2,0,2,1.63
2013-5-20,81,67,55,72,64,55,100,90,71,30.12,29.98,1,0,2,0.00
2013-5-21,86,72,60,74,67,60,100,85,62,30.03,29.87,2,0,4,0.00
2013-5-22,82,71,65,71,67,64,98,86,61,29.95,29.83,2,0,4,0.01
2013-5-23,81,70,61,68,62,56,99,78,48,30.02,29.89,2,0,3,0.01
2013-5-24,72,65,56,56,52,48,85,66,43,30.26,30.02,2,0,3,0.00
2013-5-25,76,62,47,56,49,44,94,67,38,30.35,30.18,2,0,4,0.00
2013-5-26,78,64,50,60,54,49,96,73,47,30.28,30.16,2,0,3,0.00
2013-5-27,84,69,54,66,60,52,97,75,47,30.22,30.07,1,0,4,0.00
2013-5-28,84,72,60,67,63,59,97,75,48,30.17,30.06,2,0,3,0.00
2013-5-29,84,73,62,70,64,60,93,76,52,30.20,30.08,2,0,4,0.00
2013-5-30,81,72,64,69,66,62,96,80,65,30.21,30.08,2,0,4,0.00
2013-5-31,81,73,64,70,67,63,96,82,63,30.16,30.02,2,0,3,0.00
2013-6-1,78,73,68,74,69,65,98,89,79,30.06,29.94,2,0,3,0.54
2013-6-2,78,72,67,73,70,66,100,94,82,29.98,29.85,0,0,1,0.58
2013-6-3,82,71,63,70,65,60,99,82,57,29.99,29.89,1,0,2,0.00
2013-6-4,82,70,58,67,62,57,98,77,55,30.03,29.95,1,0,3,0.00
2013-6-5,79,68,62,73,66,60,99,93,80,30.02,29.90,1,0,1,0.93
2013-6-6,79,72,67,73,69,66,99,93,77,29.93,29.73,1,0,1,0.01
2013-6-7,81,71,65,71,68,65,99,92,70,29.85,29.71,0,0,2,0.07
2013-6-8,81,70,61,70,65,61,100,85,59,30.05,29.85,2,0,2,0.00
2013-6-9,78,69,64,73,68,63,99,94,81,30.08,29.95,1,0,2,1.02
2013-6-10,82,73,67,71,68,66,99,86,62,29.98,29.88,2,0,3,0.95
2013-6-11,88,76,67,76,71,66,100,87,63,30.02,29.94,1,0,3,0.15
2013-6-12,90,79,70,80,74,69,99,87,67,30.05,29.93,1,0,3,0.00
2013-6-13,88,79,72,78,73,67,93,81,72,29.94,29.74,2,0,7,0.00
2013-6-14,82,73,62,67,63,58,89,72,54,30.01,29.86,2,0,3,0.00
2013-6-15,84,72,60,69,64,58,96,77,56,30.12,30.01,2,0,3,0.00
2013-6-16,87,72,63,75,68,62,98,86,62,30.12,29.98,2,0,2,0.51
2013-6-17,81,71,67,75,70,66,99,96,80,30.03,29.91,1,0,2,0.64
2013-6-18,80,71,66,74,69,66,100,94,79,29.94,29.85,0,0,0,0.93
2013-6-19,84,72,62,71,66,62,99,84,57,30.06,29.93,1,0,2,0.01
2013-6-20,85,72,64,71,68,63,99,87,60,30.18,30.06,2,0,2,0.18
2013-6-21,83,73,65,72,68,64,100,86,65,30.24,30.13,2,0,2,0.00
2013-6-22,85,74,65,71,67,64,99,80,54,30.22,30.07,1,0,1,0.00
2013-6-23,84,74,64,73,68,63,98,84,67,30.19,30.06,1,0,2,0.00
2013-6-24,86,75,67,74,70,66,99,86,63,30.21,30.06,0,0,0,0.00
2013-6-25,87,77,70,76,72,69,97,87,65,30.15,30.00,2,0,3,0.00
2013-6-26,88,79,70,76,73,69,99,84,66,30.04,29.87,2,0,3,0.00
2013-6-27,87,79,74,78,73,69,93,83,71,29.93,29.78,2,0,3,0.00
2013-6-28,88,76,69,79,72,68,98,88,68,29.83,29.65,1,0,3,0.34
2013-6-29,84,75,68,72,68,64,99,82,53,29.71,29.65,1,0,3,0.08
2013-6-30,86,74,63,69,65,61,97,77,47,29.80,29.67,1,0,2,0.44
2013-7-1,77,68,62,72,66,61,99,96,80,29.91,29.77,1,0,2,1.07
2013-7-2,81,71,66,74,69,66,100,94,73,30.04,29.90,2,0,4,0.81
2013-7-3,71,69,67,71,69,67,100,99,98,30.15,30.04,0,0,1,1.16
2013-7-4,73,69,67,73,69,67,100,99,97,30.15,30.05,1,0,3,1.27
2013-7-5,72,70,68,72,70,68,100,100,99,30.18,30.08,1,0,2,0.30
2013-7-6,70,69,68,70,69,68,100,100,99,30.14,30.09,0,0,1,1.42
2013-7-7,78,71,68,75,71,68,100,98,85,30.17,30.09,2,0,4,2.66
2013-7-8,83,74,69,76,72,68,100,95,77,30.20,30.09,1,0,1,1.27
2013-7-9,88,77,70,79,74,70,100,91,69,30.16,30.04,1,0,2,0.00
2013-7-10,85,76,69,79,74,68,100,92,78,30.07,29.91,1,0,2,0.73
2013-7-11,81,73,69,77,72,69,100,97,82,29.99,29.86,1,0,1,0.45
2013-7-12,82,74,67,73,69,64,100,86,65,29.97,29.89,1,0,2,0.01
2013-7-13,82,72,62,73,68,61,98,87,70,30.06,29.94,2,0,3,0.00
2013-7-14,80,73,69,77,72,68,99,96,84,30.19,30.04,2,0,3,0.43
2013-7-15,85,75,69,74,71,69,100,89,63,30.29,30.19,2,0,4,0.01
2013-7-16,87,78,68,77,73,68,100,86,66,30.31,30.22,1,0,2,0.00
2013-7-17,91,80,70,78,73,69,99,83,57,30.28,30.13,1,0,3,0.01
2013-7-18,88,78,70,77,73,69,98,85,59,30.22,30.03,1,0,1,0.02
2013-7-19,90,79,71,76,73,70,99,82,55,30.10,29.94,1,0,3,0.00
2013-7-20,90,78,70,77,73,69,98,84,61,30.02,29.88,1,0,2,0.00
2013-7-21,86,76,72,76,73,71,98,91,69,30.00,29.91,1,0,3,0.38
2013-7-22,82,74,70,76,71,69,98,90,76,29.98,29.85,1,0,2,0.00
2013-7-23,79,74,68,75,72,67,98,91,84,29.93,29.81,1,0,2,0.02
2013-7-24,82,75,70,76,72,69,98,91,77,29.89,29.82,1,0,1,0.06
2013-7-25,84,74,64,72,68,63,98,82,61,30.03,29.89,0,0,0,0.00
2013-7-26,85,73,62,74,67,61,97,83,65,30.07,29.96,0,0,0,0.00
2013-7-27,82,74,68,74,70,67,96,86,68,29.99,29.86,0,0,0,0.00
2013-7-28,82,74,67,72,68,62,96,84,70,30.07,29.91,0,0,0,0.00
2013-7-29,78,68,58,66,62,56,97,82,61,30.19,30.06,0,0,0,0.00
2013-7-30,84,72,62,72,66,61,97,82,57,30.23,30.10,0,0,0,0.00
2013-7-31,74,70,67,72,69,66,99,97,90,30.15,29.96,1,0,2,0.43
2013-8-1,85,76,71,75,71,68,99,87,67,29.99,29.93,0,0,2,0.00
2013-8-2,83,74,64,73,68,63,98,81,60,30.03,29.96,1,0,2,0.00
2013-8-3,80,73,65,74,70,64,98,90,79,30.05,29.99,1,0,1,0.00
2013-8-4,86,76,70,75,70,64,97,82,63,30.07,30.00,1,0,2,0.00
2013-8-5,84,72,62,70,65,60,96,80,51,30.07,29.97,1,0,2,0.00
2013-8-6,82,74,69,76,71,68,99,91,78,30.00,29.94,1,0,2,0.62
2013-8-7,80,73,70,76,72,69,100,98,87,30.02,29.95,1,0,1,0.53
2013-8-8,84,75,70,78,73,69,100,95,77,30.04,29.96,1,0,2,0.41
2013-8-9,84,75,70,80,74,69,100,96,81,30.06,29.98,1,0,1,0.16
2013-8-10,83,75,71,78,74,70,100,96,78,30.11,30.05,1,0,2,0.41
2013-8-11,86,77,72,78,74,72,100,92,68,30.14,30.04,1,0,2,0.17
2013-8-12,86,75,70,79,74,70,100,95,75,30.10,29.96,2,0,2,1.57
2013-8-13,83,75,70,76,72,70,100,93,74,29.99,29.87,1,0,2,0.22
2013-8-14,77,71,65,71,66,60,96,84,64,30.04,29.92,2,0,2,0.00
2013-8-15,75,68,64,69,62,58,89,81,72,30.08,30.01,1,0,2,0.00
2013-8-16,71,67,64,66,64,60,94,88,79,30.10,30.03,1,0,2,0.02
2013-8-17,70,67,65,67,65,63,99,94,85,30.14,30.07,0,0,0,0.06
2013-8-18,73,68,65,71,67,65,100,97,89,30.19,30.10,0,0,1,0.19
2013-8-19,76,70,67,73,70,67,100,97,89,30.15,30.04,0,0,0,0.29
2013-8-20,80,74,69,75,72,69,100,94,81,30.17,30.08,1,0,1,0.01
2013-8-21,78,73,72,74,72,71,100,97,86,30.20,30.11,1,0,1,0.19
2013-8-22,82,73,70,77,72,70,100,98,83,30.17,30.05,1,0,2,0.67
2013-8-23,84,73,66,77,71,66,100,93,76,30.10,29.98,1,0,1,0.38
2013-8-24,82,71,65,75,69,65,100,94,77,30.19,30.06,0,0,0,0.01
2013-8-25,82,77,69,69,67,65,93,72,60,30.34,30.24,1,0,2,0.00
2013-8-26,82,73,61,70,66,60,99,80,61,30.32,30.15,1,0,1,0.00
2013-8-27,83,73,63,74,68,62,99,87,65,30.18,30.04,1,0,1,0.00
2013-8-28,86,76,67,78,72,66,99,89,69,30.07,29.99,1,0,1,0.00
2013-8-29,88,78,69,79,74,68,99,87,70,30.03,29.93,0,0,2,0.00
2013-8-30,84,75,71,78,74,70,99,95,81,30.00,29.91,0,0,0,0.04
2013-8-31,87,77,71,79,74,71,100,90,66,29.97,29.83,1,0,1,0.00
2013-9-1,82,74,71,78,72,70,100,95,79,29.92,29.84,1,0,2,0.28
2013-9-2,81,74,69,75,72,69,99,92,76,29.96,29.85,1,0,2,0.00
2013-9-3,85,77,70,76,72,66,98,85,64,30.00,29.86,1,0,1,0.00
2013-9-4,83,72,62,71,67,61,99,84,62,30.12,30.00,1,0,1,0.00
2013-9-5,82,71,61,71,66,60,99,85,62,30.16,30.09,1,0,2,0.00
2013-9-6,84,72,63,72,66,62,97,84,64,30.17,30.06,1,0,2,0.00
2013-9-7,83,73,63,74,68,62,99,86,67,30.13,30.00,1,0,2,0.00
2013-9-8,84,74,65,76,71,64,99,89,72,30.02,29.94,1,0,1,0.00
2013-9-9,86,75,70,77,72,69,99,92,68,30.10,30.00,1,0,2,0.05
2013-9-10,85,76,68,75,71,68,100,87,60,30.21,30.10,1,0,2,0.00
2013-9-11,86,76,67,75,71,67,99,86,61,30.23,30.09,1,0,1,0.00
2013-9-12,86,75,68,76,71,67,99,87,65,30.10,29.91,1,0,1,0.05
2013-9-13,80,71,62,68,63,54,98,78,54,29.97,29.88,1,0,2,0.00
2013-9-14,74,64,55,61,55,50,95,75,55,30.08,29.97,2,0,3,0.00
2013-9-15,80,66,54,68,61,53,99,85,58,30.18,30.08,2,0,4,0.00
2013-9-16,81,69,58,69,63,57,99,83,55,30.17,30.09,1,0,2,0.00
2013-9-17,79,71,65,69,65,61,90,79,67,30.22,30.12,1,0,4,0.00
2013-9-18,77,70,64,67,63,60,94,79,67,30.23,30.11,1,0,3,0.00
2013-9-19,81,70,60,69,64,59,99,85,63,30.20,30.05,1,0,2,0.00
2013-9-20,84,72,62,69,66,61,99,83,56,30.08,29.87,0,0,0,0.00
2013-9-21,71,67,59,69,66,58,99,97,90,29.88,29.75,0,0,0,1.84
2013-9-22,73,62,52,62,56,51,99,82,57,29.93,29.84,0,0,0,0.00
2013-9-23,77,64,55,65,59,54,96,84,60,30.03,29.92,0,0,0,0.00
2013-9-24,68,63,58,65,62,57,98,94,87,30.04,29.91,0,0,0,0.00
2013-9-25,66,65,64,66,65,64,99,99,94,29.90,29.84,0,0,0,0.52
2013-9-26,75,67,62,67,65,60,100,92,72,30.02,29.89,0,0,0,0.00
2013-9-27,76,65,56,65,60,55,99,85,60,30.17,30.03,0,0,0,0.00
2013-9-28,75,65,56,64,60,56,99,85,61,30.24,30.10,2,0,2,0.01
2013-9-29,71,63,55,62,59,54,98,86,66,30.16,30.02,1,0,2,0.01
2013-9-30,73,63,55,63,59,54,99,87,65,30.11,30.01,1,0,2,0.00
2013-10-1,78,65,56,69,62,55,99,90,69,30.18,30.06,1,0,2,0.01
2013-10-2,79,69,60,70,65,59,99,89,67,30.18,30.06,1,0,1,0.00
2013-10-3,80,71,64,70,66,62,100,86,62,30.14,30.04,2,0,4,0.02
2013-10-4,78,67,59,70,64,58,99,91,76,30.17,30.08,0,0,0,0.00
2013-10-5,82,70,61,71,66,60,99,87,64,30.14,30.00,1,0,2,0.00
2013-10-6,79,69,60,70,66,57,99,90,73,30.01,29.82,2,0,2,0.09
2013-10-7,68,60,54,58,53,50,96,79,57,30.07,29.88,2,0,3,0.00
2013-10-8,71,62,56,60,53,47,92,73,60,30.15,30.06,2,0,3,0.00
2013-10-9,73,63,54,63,58,53,98,86,66,30.22,30.11,1,0,2,0.00
2013-10-10,76,64,54,64,59,53,99,84,59,30.17,30.04,1,0,2,0.00
2013-10-11,77,62,50,61,55,49,99,81,47,30.11,30.01,1,0,2,0.00
2013-10-12,78,55,51,63,39,-100,98,74,53,30.13,30.03,1,-90,1,0.00
2013-10-13,78,64,52,64,58,52,99,83,55,30.24,30.13,1,0,2,0.00
2013-10-14,76,66,56,65,61,55,98,84,64,30.24,30.09,1,0,3,0.00
2013-10-15,69,66,63,63,61,60,92,84,75,30.16,30.05,1,0,2,0.00
2013-10-16,70,63,60,64,61,58,98,92,79,30.07,29.96,1,0,1,0.05
2013-10-17,70,63,52,67,61,50,100,93,81,30.02,29.89,1,0,2,0.31
2013-10-18,65,54,45,55,49,44,99,86,63,30.10,29.98,2,0,2,0.00
2013-10-19,66,55,48,57,52,45,98,88,71,30.06,29.93,1,0,1,0.00
2013-10-20,62,48,37,48,42,36,98,80,42,30.14,30.05,1,0,3,0.00
2013-10-21,67,51,37,55,46,36,98,84,54,30.17,30.02,1,0,2,0.00
2013-10-22,65,57,51,56,53,50,97,87,69,30.05,29.89,0,0,1,0.00
2013-10-23,55,50,37,51,42,35,91,75,53,30.14,29.86,1,0,5,0.00
2013-10-24,59,46,36,46,40,34,100,80,58,30.32,30.13,1,0,2,0.00
2013-10-25,50,40,31,37,31,27,88,71,48,30.50,30.33,2,0,3,0.00
2013-10-26,58,42,28,41,33,26,96,74,43,30.40,30.18,1,0,2,0.00
2013-10-27,61,53,46,54,48,40,95,84,69,30.19,30.12,1,0,2,0.00
2013-10-28,59,54,48,57,53,47,98,96,93,30.30,30.14,0,0,0,0.01
2013-10-29,68,59,52,60,56,52,99,91,77,30.36,30.23,1,0,1,0.00
2013-10-30,77,63,54,62,58,53,99,85,56,30.30,30.13,1,0,3,0.00
2013-10-31,71,64,58,65,60,56,96,90,80,30.15,29.74,3,1,6,0.05
2013-11-1,70,62,50,66,56,47,98,82,52,29.85,29.71,3,0,4,0.57
2013-11-2,64,53,43,51,44,40,98,76,44,30.13,29.84,1,0,2,0.00
2013-11-3,58,48,40,43,41,38,93,77,53,30.33,30.12,2,0,4,0.00
2013-11-4,63,49,36,44,40,35,97,75,47,30.46,30.33,3,0,4,0.00
2013-11-5,62,52,42,49,43,40,91,73,50,30.48,30.33,1,0,3,0.00
2013-11-6,68,58,46,60,54,43,97,85,73,30.34,30.09,2,1,4,0.04
2013-11-7,64,52,43,60,44,31,98,76,48,30.32,30.03,1,0,3,0.30
2013-11-8,55,44,34,34,31,27,86,63,35,30.43,30.30,2,0,4,0.00
2013-11-9,56,44,31,41,35,29,95,74,49,30.39,30.27,2,0,3,0.00
2013-11-10,68,53,40,48,40,33,94,66,32,30.36,30.26,1,0,4,0.00
2013-11-11,64,50,36,41,35,31,83,60,34,30.35,30.19,2,0,3,0.00
2013-11-12,51,42,31,44,32,17,82,67,46,30.59,30.17,2,0,4,0.00
2013-11-13,44,34,27,24,20,17,82,59,38,30.70,30.53,3,1,7,0.00
2013-11-14,55,36,22,28,24,20,91,64,28,30.55,30.34,1,0,4,0.00
2013-11-15,50,41,32,43,35,25,97,81,61,30.34,30.20,1,0,1,0.32
2013-11-16,58,49,43,56,48,42,99,97,93,30.26,30.14,1,0,1,0.01
2013-11-17,66,61,58,66,60,56,100,96,90,30.14,29.87,2,0,3,1.06
2013-11-18,65,58,47,65,44,34,99,63,37,30.17,29.90,3,0,4,0.12
2013-11-19,53,46,40,34,30,25,68,55,35,30.25,30.16,5,1,7,0.00
2013-11-20,57,45,31,39,34,28,92,67,42,30.35,30.21,3,0,3,0.00
2013-11-21,61,54,51,52,45,37,86,71,58,30.39,30.28,3,0,4,0.00
2013-11-22,57,55,53,56,54,51,98,95,87,30.34,30.22,2,0,3,0.01
2013-11-23,53,46,33,51,39,22,92,78,57,30.43,30.22,2,0,6,0.00
2013-11-24,37,30,24,23,15,10,70,54,35,30.61,30.43,6,2,8,0.00
2013-11-25,42,20,27,32,-22,-100,94,44,39,30.53,30.26,1,-361,1,0.31
2013-11-26,42,37,32,42,36,31,98,96,90,30.26,29.79,3,0,3,2.16
2013-11-27,37,31,23,35,24,16,90,75,61,30.37,29.86,3,1,7,0.00
2013-11-28,43,29,18,28,22,15,92,75,50,30.55,30.38,2,0,4,0.00
2013-11-29,50,34,23,30,26,21,94,73,42,30.63,30.52,3,0,5,0.00
2013-11-30,53,38,26,32,29,24,93,71,41,30.58,30.35,3,0,4,0.00
2013-12-1,55,42,28,41,34,26,92,74,51,30.36,30.05,2,0,3,0.00
2013-12-2,47,46,44,47,45,40,98,96,79,30.04,29.84,1,0,1,0.21
2013-12-3,52,50,47,52,50,47,99,99,98,29.91,29.84,0,0,0,0.02
2013-12-4,70,60,52,64,58,51,100,94,75,29.99,29.88,4,1,6,0.01
2013-12-5,73,67,62,67,65,61,99,93,79,30.03,29.91,3,0,6,0.02
2013-12-6,66,53,39,65,52,38,98,96,90,30.21,29.88,2,0,5,1.05
2013-12-7,40,38,35,38,35,33,95,89,84,30.44,30.21,4,1,6,0.00
2013-12-8,46,41,35,46,40,34,99,97,92,30.37,30.13,3,1,4,1.02
2013-12-9,52,46,42,50,45,40,99,96,90,30.20,30.08,1,0,2,0.49
2013-12-10,41,36,26,41,32,25,98,87,65,30.42,30.04,2,0,6,0.36
2013-12-11,48,34,22,34,27,20,96,76,48,30.53,30.40,1,0,7,0.00
2013-12-12,41,32,25,27,22,16,83,67,38,30.59,30.47,3,0,3,0.00
2013-12-13,42,33,21,31,24,18,93,72,45,30.49,30.20,1,0,2,0.00
2013-12-14,48,41,37,47,39,30,99,93,74,30.23,29.85,1,0,3,0.70
2013-12-15,43,35,32,39,31,29,91,85,79,30.28,29.95,1,0,3,0.00
2013-12-16,52,39,28,38,32,26,96,79,58,30.31,30.18,3,0,4,0.00
2013-12-17,59,44,30,41,34,28,96,70,49,30.30,30.08,3,1,6,0.00
2013-12-18,49,37,26,29,26,23,91,66,38,30.40,30.29,2,0,4,0.00
2013-12-19,59,41,26,34,29,24,92,66,36,30.36,30.19,1,0,4,0.00
2013-12-20,61,52,39,53,41,31,85,66,50,30.22,30.09,2,0,3,0.00
2013-12-21,68,61,56,66,59,53,99,93,84,30.09,29.82,3,1,6,0.14
2013-12-22,68,58,54,66,57,53,98,95,84,30.08,29.80,3,1,4,1.58
2013-12-23,54,42,29,53,38,26,98,87,75,30.40,30.06,2,0,5,0.01
2013-12-24,35,30,26,27,22,16,90,72,50,30.55,30.40,3,0,4,0.00
2013-12-25,45,31,20,29,22,17,90,72,49,30.53,30.38,2,0,3,0.00
2013-12-26,48,34,24,34,28,23,95,79,55,30.46,30.35,2,0,3,0.00
2013-12-27,52,36,25,31,26,23,93,71,37,30.53,30.41,2,0,3,0.00
2013-12-28,40,34,28,38,31,24,97,88,70,30.45,30.03,1,0,2,0.89
2013-12-29,48,41,36,44,40,35,99,95,84,30.10,29.93,1,0,2,0.32
2013-12-30,40,38,36,40,34,31,98,88,77,30.29,30.09,2,0,3,0.00
2013-12-31,41,34,28,33,28,26,95,81,58,30.51,30.28,3,0,5,0.00
2014-1-1,48,35,24,36,29,23,96,82,55,30.41,30.15,2,0,4,0.00
2014-1-2,46,37,22,45,33,14,98,85,72,30.28,29.84,3,1,8,0.36